Latest Weather Observations for Gold Coast Seaway

IDQ60901

Issued at 9:21 am EST Wednesday 20 February 2019 (issued every 10 minutes, with the page automatically refreshed every 10 minutes)

About weather observations | Map of Brisbane area stations | Latest observations for Brisbane area | Other Formats
Station Details ID: 040764 Name: GOLD COAST SEAWAY Lat: -27.94 Lon: 153.43 Height: 2.98 m
Data from the previous 72 hours. | See also: Recent months at Gold Coast Seaway
Date/Time
EST
Temp
°C
App
Temp
°C
Dew
Point
°C
Rel
Hum
%
Delta-T
°C
Wind Press
QNH
hPa
Press
MSL
hPa
Rain since
9am
mm
Dir  Spd
km/h
Gust
km/h
Spd
kts
Gust
kts
20/09:00am 29.8 32.0 24.9 75 3.4 SSE 22 28 12 15 1009.3 1009.3 0.0
20/08:30am 28.3 30.2 23.7 76 3.2 SSE 20 26 11 14 1009.2 1009.2 0.0
20/08:00am 28.2 29.6 24.2 79 2.8 SSE 24 28 13 15 1009.1 1009.1 0.0
20/07:30am 26.8 28.6 23.5 82 2.3 S 20 26 11 14 1008.7 1008.7 0.0
20/07:00am 25.9 27.1 23.2 85 1.8 S 22 28 12 15 1008.5 1008.5 0.0
20/06:30am 24.9 26.5 23.3 91 1.1 S 20 26 11 14 1008.3 1008.3 0.0
20/06:00am 24.2 25.8 23.2 94 0.7 S 20 26 11 14 1008.2 1008.2 0.0
20/05:30am 23.8 25.6 22.6 93 0.8 S 17 24 9 13 1007.9 1007.9 0.0
20/05:00am 23.8 26.0 22.6 93 0.8 S 15 24 8 13 1007.7 1007.7 0.0
20/04:30am 24.4 26.4 23.0 92 0.9 S 17 22 9 12 1007.5 1007.5 0.0
20/04:00am 24.8 27.2 23.6 93 0.8 SSE 17 24 9 13 1007.3 1007.3 0.0
20/03:30am 24.7 26.8 23.7 94 0.7 SSE 19 22 10 12 1007.0 1007.0 0.0
20/03:00am 24.5 27.1 23.3 93 0.8 SSE 15 22 8 12 1007.1 1007.1 0.0
20/02:30am 24.1 26.6 22.5 91 1.1 S 13 15 7 8 1007.0 1007.0 0.0
20/02:00am 24.1 27.4 22.5 91 1.1 SSW 9 11 5 6 1006.7 1006.7 0.0
20/01:30am 24.1 27.4 22.5 91 1.1 SW 9 13 5 7 1006.8 1006.8 0.0
20/01:00am 24.3 28.0 22.6 90 1.1 W 7 9 4 5 1007.1 1007.1 0.0
20/12:30am 24.0 27.6 22.3 90 1.1 W 7 9 4 5 1007.4 1007.4 0.0
20/12:00am 24.3 27.6 22.6 90 1.1 WNW 9 11 5 6 1007.6 1007.6 0.0
 
Date/Time
EST
Temp
°C
App
Temp
°C
Dew
Point
°C
Rel
Hum
%
Delta-T
°C
Wind Press
QNH
hPa
Press
MSL
hPa
Rain since
9am
mm
Dir  Spd
km/h
Gust
km/h
Spd
kts
Gust
kts
19/11:30pm 24.7 28.2 22.8 89 1.3 WNW 9 9 5 5 1007.8 1007.8 0.0
19/11:00pm 24.7 28.6 22.9 90 1.2 NNW 7 9 4 5 1007.8 1007.8 0.0
19/10:30pm 24.7 28.6 22.9 90 1.2 NNW 7 9 4 5 1008.0 1008.0 0.0
19/10:00pm 24.8 28.5 22.5 87 1.5 NNW 7 9 4 5 1008.2 1008.2 0.0
19/09:30pm 25.0 28.4 22.7 87 1.5 NNE 9 13 5 7 1008.1 1008.1 0.0
19/09:00pm 25.4 29.1 23.3 88 1.4 NE 9 13 5 7 1008.1 1008.1 0.0
19/08:30pm 25.7 29.3 23.7 89 1.4 NE 11 13 6 7 1007.9 1007.9 0.0
19/08:00pm 25.6 29.0 23.3 87 1.6 NE 11 15 6 8 1007.6 1007.6 0.0
19/07:30pm 25.8 29.3 23.5 87 1.6 NE 11 15 6 8 1007.4 1007.4 0.0
19/07:00pm 25.8 28.7 23.1 85 1.8 NE 13 17 7 9 1007.1 1007.1 0.0
19/06:30pm 26.0 28.9 23.1 84 2.0 NE 13 15 7 8 1006.9 1006.9 0.0
19/06:00pm 26.4 28.7 23.5 84 2.0 NE 17 19 9 10 1006.5 1006.5 0.0
19/05:30pm 26.8 28.7 23.5 82 2.3 ENE 19 22 10 12 1006.0 1006.0 0.0
19/05:00pm 27.5 29.8 24.1 82 2.4 ENE 19 22 10 12 1005.9 1005.9 0.0
19/04:30pm 27.7 29.9 23.3 77 3.0 ENE 17 20 9 11 1005.7 1005.7 0.0
19/04:00pm 28.2 30.7 23.8 77 3.0 ENE 17 22 9 12 1005.6 1005.6 0.0
19/03:30pm 28.5 31.1 23.9 76 3.2 ENE 17 19 9 10 1005.6 1005.6 0.0
19/03:00pm 28.7 31.2 23.8 75 3.4 ENE 17 19 9 10 1005.7 1005.7 0.0
19/02:30pm 29.0 31.4 24.3 76 3.3 ENE 19 22 10 12 1005.9 1005.9 0.0
19/02:00pm 28.9 31.6 24.7 78 2.9 ENE 19 24 10 13 1006.1 1006.1 0.0
19/01:30pm 28.8 30.7 24.4 77 3.1 ENE 22 26 12 14 1006.5 1006.5 0.0
19/01:00pm 29.3 31.1 24.8 77 3.2 ENE 24 28 13 15 1006.9 1006.9 0.0
19/12:30pm 28.7 31.0 24.5 78 2.9 ENE 20 26 11 14 1007.2 1007.2 0.0
19/12:00pm 28.7 30.5 23.6 74 3.5 ENE 20 26 11 14 1007.7 1007.7 0.0
19/11:30am 29.0 31.4 23.7 73 3.7 ENE 17 20 9 11 1008.2 1008.2 0.0
19/11:00am 28.9 31.8 23.8 74 3.5 ENE 15 17 8 9 1008.5 1008.5 0.0
19/10:30am 28.2 30.8 22.7 72 3.7 ENE 13 15 7 8 1008.9 1008.9 0.0
19/10:00am 28.3 32.3 23.7 76 3.2 NE 9 11 5 6 1009.0 1009.0 0.0
19/09:30am 27.3 30.9 22.3 74 3.4 ENE 7 9 4 5 1009.2 1009.2 0.0
19/09:00am 26.9 30.2 21.9 74 3.4 ENE 7 7 4 4 1009.2 1009.2 0.0
19/08:30am 26.9 30.5 22.1 75 3.2 SE 6 7 3 4 1009.4 1009.4 0.0
19/08:00am 26.2 31.0 22.1 78 2.8 CALM 0 4 0 2 1009.2 1009.2 0.0
19/07:30am 24.2 26.3 20.1 78 2.7 SW 9 11 5 6 1009.1 1009.1 0.0
19/07:00am 23.0 25.0 20.0 83 1.9 SW 9 13 5 7 1008.9 1008.9 0.0
19/06:30am 21.6 23.6 19.9 90 1.1 SW 9 13 5 7 1008.8 1008.8 0.0
19/06:00am 20.8 22.2 19.6 93 0.8 SW 11 13 6 7 1008.7 1008.7 0.0
19/05:30am 20.7 22.6 19.7 94 0.6 WSW 9 11 5 6 1008.7 1008.7 0.0
19/05:00am 20.7 22.2 19.7 94 0.6 SW 11 15 6 8 1008.6 1008.6 0.0
19/04:30am 20.8 22.3 19.8 94 0.6 SW 11 13 6 7 1008.5 1008.5 0.0
19/04:00am 21.0 22.6 20.0 94 0.6 WSW 11 13 6 7 1008.6 1008.6 0.0
19/03:30am 21.1 22.7 19.9 93 0.8 SW 11 13 6 7 1008.7 1008.7 0.0
19/03:00am 21.2 22.8 20.0 93 0.8 SW 11 15 6 8 1008.8 1008.8 0.0
19/02:30am 21.5 23.2 20.1 92 0.9 SW 11 13 6 7 1009.0 1009.0 0.0
19/02:00am 21.9 23.7 20.4 91 1.0 WSW 11 13 6 7 1009.2 1009.2 0.0
19/01:30am 22.2 24.4 20.5 90 1.1 SW 9 11 5 6 1009.5 1009.5 0.0
19/01:00am 22.4 24.6 20.3 88 1.4 SSW 9 11 5 6 1009.6 1009.6 0.0
19/12:30am 22.9 25.1 20.4 86 1.6 SW 9 13 5 7 1010.2 1010.2 0.0
19/12:00am 23.7 26.6 20.6 83 2.0 ESE 6 9 3 5 1010.5 1010.5 0.0
 
Date/Time
EST
Temp
°C
App
Temp
°C
Dew
Point
°C
Rel
Hum
%
Delta-T
°C
Wind Press
QNH
hPa
Press
MSL
hPa
Rain since
9am
mm
Dir  Spd
km/h
Gust
km/h
Spd
kts
Gust
kts
18/11:30pm 24.3 27.0 21.4 84 1.9 ESE 9 13 5 7 1010.7 1010.7 0.0
18/11:00pm 24.6 26.5 21.3 82 2.2 E 13 15 7 8 1010.9 1010.9 0.0
18/10:30pm 24.5 26.2 21.0 81 2.3 E 13 19 7 10 1011.1 1011.1 0.0
18/10:00pm 24.8 25.9 21.3 81 2.3 ESE 17 20 9 11 1011.3 1011.3 0.0
18/09:30pm 24.8 25.7 20.9 79 2.6 E 17 19 9 10 1011.3 1011.3 0.0
18/09:00pm 25.0 26.2 21.5 81 2.3 ESE 17 19 9 10 1011.4 1011.4 0.0
18/08:30pm 25.1 26.5 21.8 82 2.2 ESE 17 22 9 12 1011.1 1011.1 0.0
18/08:00pm 25.1 26.0 21.6 81 2.3 ESE 19 22 10 12 1010.9 1010.9 0.0
18/07:30pm 25.0 24.8 21.3 80 2.4 ESE 24 26 13 14 1010.6 1010.6 0.0
18/07:00pm 25.1 24.8 21.8 82 2.2 ESE 26 32 14 17 1010.2 1010.2 0.0
18/06:30pm 25.5 25.2 21.8 80 2.5 ESE 26 30 14 16 1009.7 1009.7 0.0
18/06:00pm 25.9 25.7 22.0 79 2.6 SE 26 30 14 16 1009.5 1009.5 0.0
18/05:30pm 26.4 26.6 22.0 77 2.9 ESE 24 30 13 16 1009.3 1009.3 0.0
18/05:00pm 26.9 26.6 21.9 74 3.4 ESE 26 30 14 16 1009.3 1009.3 0.0
18/04:30pm 27.7 28.0 22.9 75 3.3 ESE 26 32 14 17 1009.2 1009.2 0.0
18/04:00pm 28.1 27.3 22.3 70 3.9 ESE 30 35 16 19 1009.1 1009.1 0.0
18/03:30pm 28.5 27.4 21.8 67 4.5 ESE 30 35 16 19 1009.1 1009.1 0.0
18/03:00pm 28.7 28.6 22.2 68 4.4 ESE 26 30 14 16 1009.4 1009.4 0.0
18/02:30pm 29.1 29.3 22.1 66 4.7 ESE 24 28 13 15 1009.8 1009.8 0.0
18/02:00pm 29.0 28.9 21.5 64 5.0 ESE 24 30 13 16 1010.1 1010.1 0.0
18/01:30pm 29.6 29.8 22.1 64 5.1 ESE 24 26 13 14 1010.5 1010.5 0.0
18/01:00pm 29.7 30.8 21.9 63 5.3 SE 19 22 10 12 1010.9 1010.9 0.0
18/12:30pm 29.4 29.8 22.4 66 4.7 ESE 24 30 13 16 1011.1 1011.1 0.0
18/12:00pm 30.1 31.7 23.3 67 4.7 SSE 20 28 11 15 1011.2 1011.2 0.0
18/11:30am 29.8 31.7 22.8 66 4.8 SSE 17 22 9 12 1011.6 1011.6 0.0
18/11:00am 30.1 31.5 22.8 65 5.0 SSE 20 28 11 15 1011.9 1011.9 0.0
18/10:30am 30.0 31.1 23.7 69 4.4 SE 24 28 13 15 1012.3 1012.3 0.0
18/10:00am 27.6 28.4 22.5 74 3.4 SSE 22 28 12 15 1012.4 1012.4 0.0
18/09:30am 28.0 29.1 22.0 70 4.0 SSE 19 24 10 13 1012.5 1012.5 0.0
18/09:00am 27.8 28.9 22.3 72 3.7 SSE 20 26 11 14 1012.4 1012.4 0.0
18/08:30am 26.2 26.3 21.2 74 3.3 S 22 28 12 15 1012.3 1012.3 0.0
18/08:00am 26.6 27.9 20.9 71 3.8 SSE 15 26 8 14 1012.3 1012.3 0.0
18/07:30am 25.2 26.8 20.7 76 2.9 S 13 17 7 9 1012.2 1012.2 0.0
18/07:00am 23.0 24.7 20.1 84 1.9 SSW 11 15 6 8 1012.1 1012.1 0.0
18/06:30am 21.7 24.0 19.8 89 1.2 SW 7 15 4 8 1012.0 1012.0 0.0
18/06:00am 20.4 21.4 18.7 90 1.1 SSW 11 13 6 7 1011.8 1011.8 0.0
18/05:30am 20.4 21.6 18.3 88 1.3 SSW 9 11 5 6 1011.6 1011.6 0.0
18/05:00am 20.8 22.2 18.7 88 1.3 SSW 9 11 5 6 1011.4 1011.4 0.0
18/04:30am 21.1 22.2 18.9 87 1.4 SSW 11 15 6 8 1011.2 1011.2 0.0
18/04:00am 21.3 22.1 19.0 87 1.5 SSW 13 17 7 9 1011.2 1011.2 0.0
18/03:30am 21.6 22.8 19.0 85 1.6 SSW 11 15 6 8 1011.2 1011.2 0.0
18/03:00am 22.2 23.2 19.4 84 1.8 SSW 13 19 7 10 1011.3 1011.3 0.0
18/02:30am 22.4 23.8 19.6 84 1.8 SSW 11 17 6 9 1011.5 1011.5 0.0
18/02:00am 22.7 23.7 19.5 82 2.0 S 13 15 7 8 1011.7 1011.7 0.0
18/01:30am 22.7 24.0 19.3 81 2.2 SSW 11 15 6 8 1011.8 1011.8 0.0
18/01:00am 23.8 23.6 19.7 78 2.6 SE 20 26 11 14 1012.1 1012.1 0.0
18/12:30am 24.4 24.3 20.7 80 2.4 SE 22 28 12 15 1012.4 1012.4 0.0
18/12:00am 24.5 24.3 20.6 79 2.5 SE 22 30 12 16 1012.7 1012.7 0.0
 
Date/Time
EST
Temp
°C
App
Temp
°C
Dew
Point
°C
Rel
Hum
%
Delta-T
°C
Wind Press
QNH
hPa
Press
MSL
hPa
Rain since
9am
mm
Dir  Spd
km/h
Gust
km/h
Spd
kts
Gust
kts
17/11:30pm 24.4 23.7 20.3 78 2.7 SE 24 28 13 15 1013.1 1013.1 0.0
17/11:00pm 24.5 23.3 20.0 76 2.9 SE 26 30 14 16 1013.3 1013.3 0.0
17/10:30pm 24.6 23.2 20.5 78 2.7 SE 28 33 15 18 1013.3 1013.3 0.0
17/10:00pm 24.8 23.5 20.7 78 2.7 SE 28 32 15 17 1013.3 1013.3 0.0
17/09:30pm 24.8 23.3 20.9 79 2.6 SE 30 33 16 18 1013.5 1013.5 0.0
17/09:00pm 24.7 22.4 20.6 78 2.7 SE 33 39 18 21 1013.3 1013.3 0.0
17/08:30pm 24.7 22.5 20.8 79 2.6 ESE 33 39 18 21 1013.2 1013.2 0.0
17/08:00pm 25.0 23.2 21.5 81 2.3 SE 33 37 18 20 1012.8 1012.8 0.0
17/07:30pm 25.1 23.4 21.4 80 2.4 SE 32 37 17 20 1012.5 1012.5 0.0
17/07:00pm 24.9 22.9 20.8 78 2.7 SE 32 35 17 19 1012.4 1012.4 0.0
17/06:30pm 25.0 23.4 20.7 77 2.8 SE 30 35 16 19 1012.2 1012.2 0.0
17/06:00pm 25.4 23.3 20.6 75 3.1 SE 32 37 17 20 1012.0 1012.0 0.0
17/05:30pm 25.9 23.9 21.1 75 3.2 SE 33 39 18 21 1011.8 1011.8 0.0
17/05:00pm 26.4 24.2 20.7 71 3.7 SE 33 37 18 20 1011.6 1011.6 0.0
17/04:30pm 26.6 23.7 20.0 67 4.3 SE 35 39 19 21 1011.5 1011.5 0.0
17/04:00pm 27.5 25.2 20.6 66 4.5 SE 33 39 18 21 1011.5 1011.5 0.0
17/03:30pm 28.1 25.6 20.1 62 5.2 SE 33 37 18 20 1011.6 1011.6 0.0
17/03:00pm 28.8 26.6 20.3 60 5.6 SE 32 37 17 20 1011.8 1011.8 0.0
17/02:30pm 28.6 26.5 20.9 63 5.1 SE 33 39 18 21 1012.0 1012.0 0.0
17/02:00pm 28.4 26.1 20.2 61 5.4 SE 32 37 17 20 1012.4 1012.4 0.0
17/01:30pm 28.5 26.6 21.0 64 5.0 ESE 32 37 17 20 1012.7 1012.7 0.0
17/01:00pm 29.0 26.9 21.0 62 5.3 SE 33 35 18 19 1013.2 1013.2 0.0
17/12:30pm 28.5 26.9 21.5 66 4.7 SE 32 37 17 20 1013.5 1013.5 0.0
17/12:00pm 28.9 27.1 21.1 62 5.2 SE 32 35 17 19 1013.8 1013.8 0.0
17/11:30am 28.9 27.0 20.9 62 5.3 SE 32 35 17 19 1014.2 1014.2 0.0
17/11:00am 28.8 27.7 21.8 66 4.7 SE 30 35 16 19 1014.5 1014.5 0.0
17/10:30am 29.1 28.0 21.8 64 4.9 SE 30 35 16 19 1014.8 1014.8 0.0
17/10:00am 28.9 27.4 20.9 62 5.3 SE 30 35 16 19 1015.1 1015.1 0.0
17/09:30am 28.8 28.1 21.1 63 5.1 SSE 26 32 14 17 1015.1 1015.1 0.0

Latest Capital City Observations: Canberra | Sydney | Melbourne | Brisbane | Adelaide | Perth | Hobart | Darwin

Other formats

Comma delimited format used in spreadsheet applications
http://www.bom.gov.au/fwo/IDQ60901/IDQ60901.94580.axf

JavaScript Object Notation format (JSON) in row-major order
http://www.bom.gov.au/fwo/IDQ60901/IDQ60901.94580.json

Data quality

Most of these data are generated automatically and are frequently updated. Quality checks on data are not normally performed. It is possible for incorrect values to appear. Refer to information at About Latest Weather Observations and please check the disclaimer before using these data.